Time;durP1;ratioP1;P1;durP2;ratioP2;P2;SDS_P1;SDS_P2;PMS_P1;PMS_P2;Temp;Humidity;BMP_temperature;BMP_pressure;BME280_temperature;BME280_humidity;BME280_pressure;Samples;Min_cycle;Max_cycle;Signal;HPM_P1;HPM_P2
2024/02/18 00:00:08;;;;;;;52.72;39.88;;;9.90;99.90;;;;;;7375799;19;20111;-70
2024/02/18 00:02:37;;;;;;;55.95;41.05;;;9.90;99.90;;;;;;7379317;19;20507;-71
2024/02/18 00:05:05;;;;;;;57.88;41.17;;;9.80;99.90;;;;;;7377882;19;20078;-68
2024/02/18 00:07:32;;;;;;;59.22;41.83;;;9.80;99.90;;;;;;7383803;19;20015;-70
2024/02/18 00:09:58;;;;;;;56.70;43.25;;;9.80;99.90;;;;;;7384536;19;20837;-72
2024/02/18 00:12:26;;;;;;;64.72;41.22;;;9.80;99.90;;;;;;7383663;19;20022;-70
2024/02/18 00:14:52;;;;;;;58.00;39.65;;;9.80;99.90;;;;;;7380738;19;20672;-70
2024/02/18 00:17:18;;;;;;;51.92;38.58;;;9.80;99.90;;;;;;7384457;19;20054;-70
2024/02/18 00:19:45;;;;;;;53.03;38.63;;;9.80;99.90;;;;;;7385416;19;20148;-71
2024/02/18 00:22:11;;;;;;;54.80;39.70;;;9.80;99.90;;;;;;7383157;19;20026;-67
2024/02/18 00:24:37;;;;;;;51.72;39.50;;;9.70;99.90;;;;;;7381665;19;20082;-71
2024/02/18 00:27:03;;;;;;;54.92;39.22;;;9.70;99.90;;;;;;7385622;19;20041;-70
2024/02/18 00:29:30;;;;;;;52.38;38.88;;;9.70;99.90;;;;;;7379326;19;20022;-68
2024/02/18 00:31:57;;;;;;;51.20;39.03;;;9.60;99.90;;;;;;7375684;19;20022;-68
2024/02/18 00:34:23;;;;;;;46.90;35.35;;;9.60;99.90;;;;;;7384778;19;20018;-70
2024/02/18 00:36:49;;;;;;;44.88;37.40;;;9.60;99.90;;;;;;7386051;19;20022;-70
2024/02/18 00:39:16;;;;;;;47.67;35.88;;;9.50;99.90;;;;;;7386860;19;20014;-70
2024/02/18 00:41:42;;;;;;;46.50;37.08;;;9.50;99.90;;;;;;7384875;19;20021;-70
2024/02/18 00:44:09;;;;;;;45.80;36.17;;;9.50;99.90;;;;;;7382668;19;20066;-70
2024/02/18 00:46:37;;;;;;;49.65;36.22;;;9.50;99.90;;;;;;7388431;19;20035;-71
2024/02/18 00:49:03;;;;;;;46.50;35.20;;;9.50;99.90;;;;;;7387705;19;20039;-70
2024/02/18 00:51:29;;;;;;;47.17;35.70;;;9.50;99.90;;;;;;7384555;19;20018;-71
2024/02/18 00:53:57;;;;;;;50.63;32.97;;;9.50;99.90;;;;;;7387434;19;20782;-70
2024/02/18 00:56:25;;;;;;;47.75;34.00;;;9.60;99.90;;;;;;7387021;19;20068;-71
2024/02/18 00:58:53;;;;;;;46.90;34.63;;;9.60;99.90;;;;;;7388225;19;20039;-72
2024/02/18 01:01:20;;;;;;;47.70;33.92;;;9.60;99.90;;;;;;7385137;19;20011;-71
2024/02/18 01:03:47;;;;;;;50.05;35.08;;;9.60;99.90;;;;;;7390067;19;20014;-71
2024/02/18 01:06:14;;;;;;;46.08;34.78;;;9.60;99.90;;;;;;7394396;19;20031;-68
2024/02/18 01:08:41;;;;;;;50.92;33.42;;;9.60;99.90;;;;;;7385507;19;20113;-68
2024/02/18 01:11:08;;;;;;;50.75;33.42;;;9.60;99.90;;;;;;7384687;19;20052;-69
2024/02/18 01:13:37;;;;;;;44.88;32.50;;;9.60;99.90;;;;;;7389578;19;20802;-71
2024/02/18 01:16:03;;;;;;;47.35;31.38;;;9.60;99.90;;;;;;7394850;19;20033;-74
2024/02/18 01:18:42;;;;;;;41.00;32.03;;;9.60;99.90;;;;;;7394539;19;20554;-71
2024/02/18 01:21:08;;;;;;;42.53;32.00;;;9.60;99.90;;;;;;7390227;19;20019;-71
2024/02/18 01:23:38;;;;;;;43.13;31.05;;;9.60;99.90;;;;;;7383262;19;20799;-68
2024/02/18 01:26:06;;;;;;;36.47;29.98;;;9.60;99.90;;;;;;7389238;19;20026;-68
2024/02/18 01:28:32;;;;;;;38.45;29.27;;;9.60;99.90;;;;;;7386786;19;20089;-69
2024/02/18 01:30:58;;;;;;;40.53;29.58;;;9.60;99.90;;;;;;7391086;19;20022;-70
2024/02/18 01:33:25;;;;;;;41.78;29.30;;;9.70;99.90;;;;;;7388763;19;20021;-68
2024/02/18 01:35:51;;;;;;;41.30;28.35;;;9.70;99.90;;;;;;7386933;19;20021;-68
2024/02/18 01:38:17;;;;;;;33.08;26.75;;;9.70;99.90;;;;;;7389211;19;20379;-68
2024/02/18 01:40:44;;;;;;;41.08;28.77;;;9.70;99.90;;;;;;7384498;19;20014;-70
2024/02/18 01:43:10;;;;;;;41.30;28.83;;;9.80;99.90;;;;;;7392668;19;20039;-68
2024/02/18 01:45:36;;;;;;;34.88;29.88;;;9.80;99.90;;;;;;7389277;19;20018;-71
2024/02/18 01:48:03;;;;;;;37.83;27.15;;;9.80;99.90;;;;;;7396821;19;20014;-71
2024/02/18 01:50:29;;;;;;;32.85;28.20;;;9.70;99.90;;;;;;7393177;19;20055;-71
2024/02/18 01:52:55;;;;;;;34.60;25.65;;;9.80;99.90;;;;;;7391288;19;20014;-71
2024/02/18 01:55:24;;;;;;;36.97;26.73;;;9.80;99.90;;;;;;7393593;19;20023;-71
2024/02/18 01:57:50;;;;;;;39.70;25.42;;;9.80;99.90;;;;;;7390080;19;20018;-71
2024/02/18 02:00:18;;;;;;;33.67;24.95;;;9.80;99.90;;;;;;7386546;19;20018;-68
2024/02/18 02:02:49;;;;;;;34.45;24.75;;;9.80;99.90;;;;;;7384954;19;20524;-68
2024/02/18 02:05:18;;;;;;;36.47;26.92;;;9.80;99.90;;;;;;7390723;19;20487;-71
2024/02/18 02:07:47;;;;;;;33.03;24.17;;;9.80;99.90;;;;;;7387002;19;20518;-69
2024/02/18 02:10:14;;;;;;;30.92;24.48;;;9.80;99.90;;;;;;7382538;19;20042;-69
2024/02/18 02:12:42;;;;;;;39.22;24.85;;;9.80;99.90;;;;;;7383341;19;20015;-71
2024/02/18 02:15:10;;;;;;;28.80;24.23;;;9.80;99.90;;;;;;7385153;19;20065;-69
2024/02/18 02:17:37;;;;;;;30.40;23.85;;;9.80;99.90;;;;;;7385380;19;20144;-69
2024/02/18 02:20:10;;;;;;;32.20;24.17;;;9.80;99.90;;;;;;7385909;19;20467;-69
2024/02/18 02:22:37;;;;;;;33.28;22.98;;;9.80;99.90;;;;;;7386069;19;20016;-71
2024/02/18 02:25:09;;;;;;;31.75;23.33;;;9.90;99.90;;;;;;7390689;19;20086;-69
2024/02/18 02:27:42;;;;;;;29.02;23.50;;;9.90;99.90;;;;;;7388191;19;20015;-69
2024/02/18 02:30:08;;;;;;;31.25;22.50;;;9.80;99.90;;;;;;7383756;19;20022;-69
2024/02/18 02:32:35;;;;;;;27.95;20.23;;;9.80;99.90;;;;;;7384996;19;20029;-70
2024/02/18 02:35:02;;;;;;;31.15;21.45;;;9.80;99.90;;;;;;7388345;19;20019;-70
2024/02/18 02:37:30;;;;;;;32.65;21.13;;;9.90;99.90;;;;;;7383744;19;20035;-69
2024/02/18 02:39:56;;;;;;;31.67;21.40;;;9.90;99.90;;;;;;7387311;19;20594;-69
2024/02/18 02:42:22;;;;;;;27.15;20.35;;;9.90;99.90;;;;;;7389814;19;20013;-71
2024/02/18 02:44:49;;;;;;;30.05;20.88;;;9.90;99.90;;;;;;7387236;19;20468;-71
2024/02/18 02:47:15;;;;;;;25.10;19.33;;;9.80;99.90;;;;;;7388433;19;20380;-69
2024/02/18 02:49:41;;;;;;;27.35;19.63;;;9.90;99.90;;;;;;7383380;19;20023;-69
2024/02/18 02:52:08;;;;;;;26.48;18.15;;;9.90;99.90;;;;;;7380676;19;20035;-71
2024/02/18 02:54:37;;;;;;;23.00;17.10;;;9.90;99.90;;;;;;7387973;19;20684;-71
2024/02/18 02:57:03;;;;;;;28.83;18.85;;;9.90;99.90;;;;;;7387188;19;20014;-70
2024/02/18 02:59:32;;;;;;;26.77;18.27;;;9.90;99.90;;;;;;7387520;19;20018;-69
2024/02/18 03:01:58;;;;;;;22.73;16.90;;;9.90;99.90;;;;;;7384813;19;20594;-69
2024/02/18 03:04:24;;;;;;;21.73;16.42;;;9.90;99.90;;;;;;7385098;19;20019;-70
2024/02/18 03:06:50;;;;;;;21.75;15.45;;;9.90;99.90;;;;;;7387960;19;20375;-69
2024/02/18 03:09:17;;;;;;;19.60;14.48;;;9.90;99.90;;;;;;7382447;19;20024;-69
2024/02/18 03:11:43;;;;;;;18.10;14.07;;;9.90;99.90;;;;;;7381513;19;20041;-69
2024/02/18 03:14:10;;;;;;;22.55;13.90;;;9.90;99.90;;;;;;7382750;19;20014;-69
2024/02/18 03:16:37;;;;;;;17.98;12.77;;;10.00;99.90;;;;;;7385099;19;20014;-71
2024/02/18 03:19:07;;;;;;;17.02;13.13;;;10.00;99.90;;;;;;7384000;19;20022;-69
2024/02/18 03:21:34;;;;;;;18.55;11.85;;;10.00;99.90;;;;;;7382699;19;20026;-71
2024/02/18 03:24:05;;;;;;;21.33;12.50;;;10.00;99.90;;;;;;7385266;19;20023;-69
2024/02/18 03:26:32;;;;;;;17.45;12.15;;;10.00;99.90;;;;;;7381459;19;20014;-69
2024/02/18 03:28:58;;;;;;;20.80;11.65;;;10.00;99.90;;;;;;7382411;19;20073;-69
2024/02/18 03:31:24;;;;;;;16.45;11.38;;;10.10;99.90;;;;;;7382124;19;20032;-69
2024/02/18 03:33:50;;;;;;;17.10;11.45;;;10.10;99.90;;;;;;7381769;19;20594;-69
2024/02/18 03:36:16;;;;;;;18.67;10.52;;;10.00;99.90;;;;;;7379277;19;20018;-71
2024/02/18 03:38:43;;;;;;;16.42;10.35;;;10.10;99.90;;;;;;7380784;19;20055;-71
2024/02/18 03:41:09;;;;;;;17.52;10.55;;;10.10;99.90;;;;;;7383499;19;20014;-71
2024/02/18 03:43:35;;;;;;;22.60;10.77;;;10.10;99.90;;;;;;7380243;19;21145;-70
2024/02/18 03:46:02;;;;;;;12.88;9.95;;;10.10;99.90;;;;;;7378856;19;20030;-71
2024/02/18 03:48:29;;;;;;;15.25;9.63;;;10.10;99.90;;;;;;7381993;19;20015;-68
2024/02/18 03:50:55;;;;;;;13.52;9.80;;;10.10;99.90;;;;;;7378770;19;20031;-69
2024/02/18 03:53:21;;;;;;;14.02;9.00;;;10.10;99.90;;;;;;7379150;19;20542;-68
2024/02/18 03:55:48;;;;;;;16.38;8.10;;;10.10;99.90;;;;;;7381479;19;20032;-68
2024/02/18 03:58:15;;;;;;;16.02;8.95;;;10.10;99.90;;;;;;7373886;19;20018;-69
2024/02/18 04:00:45;;;;;;;16.20;8.30;;;10.10;99.90;;;;;;7381289;19;20036;-70
2024/02/18 04:03:15;;;;;;;12.25;7.18;;;10.10;99.90;;;;;;7381728;19;20030;-68
2024/02/18 04:05:44;;;;;;;13.15;7.82;;;10.20;99.90;;;;;;7382735;19;20019;-67
2024/02/18 04:08:10;;;;;;;12.07;7.57;;;10.20;99.90;;;;;;7385289;19;20038;-70
2024/02/18 04:10:39;;;;;;;11.82;7.55;;;10.10;99.90;;;;;;7383969;19;20011;-69
2024/02/18 04:13:05;;;;;;;11.55;7.32;;;10.10;99.90;;;;;;7380904;19;20052;-69
2024/02/18 04:15:31;;;;;;;13.98;7.43;;;10.10;99.90;;;;;;7380632;19;20039;-71
2024/02/18 04:17:58;;;;;;;12.55;7.07;;;10.20;99.90;;;;;;7380935;19;20107;-69
2024/02/18 04:20:24;;;;;;;12.52;7.38;;;10.20;99.90;;;;;;7380173;19;20022;-71
2024/02/18 04:22:50;;;;;;;13.38;7.10;;;10.20;99.90;;;;;;7383078;19;20018;-71
2024/02/18 04:25:17;;;;;;;8.32;6.75;;;10.20;99.90;;;;;;7381059;19;20035;-68
2024/02/18 04:27:47;;;;;;;12.10;6.95;;;10.20;99.90;;;;;;7378046;19;20018;-69
2024/02/18 04:30:13;;;;;;;10.30;7.00;;;10.10;99.90;;;;;;7381398;19;20035;-68
2024/02/18 04:32:40;;;;;;;14.27;7.05;;;10.10;99.90;;;;;;7382173;19;20018;-68
2024/02/18 04:35:06;;;;;;;10.13;6.43;;;10.10;99.90;;;;;;7385164;19;20023;-71
2024/02/18 04:37:32;;;;;;;10.00;6.20;;;10.10;99.90;;;;;;7377718;19;20022;-70
2024/02/18 04:39:59;;;;;;;13.50;6.53;;;10.10;99.90;;;;;;7385753;19;20041;-69
2024/02/18 04:42:25;;;;;;;12.88;6.25;;;10.10;99.90;;;;;;7376172;19;20525;-69
2024/02/18 04:44:52;;;;;;;12.70;6.15;;;10.10;99.90;;;;;;7381010;19;20029;-70
2024/02/18 04:47:18;;;;;;;12.30;6.38;;;10.10;99.90;;;;;;7383330;19;20041;-70
2024/02/18 04:49:44;;;;;;;12.50;6.35;;;10.10;99.90;;;;;;7380206;19;20047;-69
2024/02/18 04:52:11;;;;;;;9.75;5.10;;;10.10;99.90;;;;;;7377741;19;20100;-69
2024/02/18 04:54:37;;;;;;;11.90;5.97;;;10.10;99.90;;;;;;7379898;19;20018;-67
2024/02/18 04:57:05;;;;;;;12.20;5.88;;;10.10;99.90;;;;;;7382046;19;20041;-68
2024/02/18 04:59:33;;;;;;;10.75;5.65;;;10.10;99.90;;;;;;7382285;19;20014;-68
2024/02/18 05:02:03;;;;;;;8.90;5.60;;;10.10;99.90;;;;;;7382826;19;20050;-68
2024/02/18 05:04:31;;;;;;;11.48;5.40;;;10.10;99.90;;;;;;7384109;19;20476;-68
2024/02/18 05:06:57;;;;;;;13.93;5.85;;;10.10;99.90;;;;;;7382515;19;20006;-68
2024/02/18 05:09:27;;;;;;;11.23;5.47;;;10.10;99.90;;;;;;7382116;19;20078;-68
2024/02/18 05:11:54;;;;;;;13.98;6.00;;;10.20;99.90;;;;;;7380623;19;20038;-68
2024/02/18 05:14:20;;;;;;;10.38;5.57;;;10.10;99.90;;;;;;7384331;19;20368;-68
2024/02/18 05:16:46;;;;;;;10.40;5.55;;;10.10;99.90;;;;;;7384953;19;20436;-68
2024/02/18 05:19:14;;;;;;;11.07;5.28;;;10.10;99.90;;;;;;7383775;19;20022;-68
2024/02/18 05:21:43;;;;;;;9.15;5.25;;;10.10;99.90;;;;;;7384664;19;20023;-68
2024/02/18 05:24:13;;;;;;;7.63;5.18;;;10.10;99.90;;;;;;7382676;19;20019;-70
2024/02/18 05:26:43;;;;;;;11.35;5.65;;;10.10;99.90;;;;;;7382168;19;20070;-70
2024/02/18 05:29:09;;;;;;;12.00;5.53;;;10.10;99.90;;;;;;7382165;19;20050;-70
2024/02/18 05:31:36;;;;;;;9.73;5.18;;;10.00;99.90;;;;;;7383729;19;20106;-69
2024/02/18 05:34:03;;;;;;;11.82;5.68;;;10.00;99.90;;;;;;7385496;19;20039;-69
2024/02/18 05:36:31;;;;;;;12.52;5.72;;;10.00;99.90;;;;;;7387368;19;20078;-69
2024/02/18 05:38:58;;;;;;;9.73;5.28;;;10.00;99.90;;;;;;7385045;19;20070;-69
2024/02/18 05:41:25;;;;;;;15.15;5.10;;;9.90;99.90;;;;;;7389449;19;20048;-69
2024/02/18 05:43:52;;;;;;;10.05;4.97;;;10.00;99.90;;;;;;7387501;19;20471;-68
2024/02/18 05:46:19;;;;;;;9.32;5.20;;;9.90;99.90;;;;;;7385370;19;20026;-68
2024/02/18 05:48:46;;;;;;;12.18;5.78;;;9.90;99.90;;;;;;7384989;19;20048;-70
2024/02/18 05:51:13;;;;;;;10.52;5.70;;;9.80;99.90;;;;;;7385002;19;20061;-69
2024/02/18 05:53:40;;;;;;;12.07;6.40;;;9.80;99.90;;;;;;7389343;19;20022;-68
2024/02/18 05:56:07;;;;;;;11.43;5.75;;;9.80;99.90;;;;;;7387078;19;20483;-69
2024/02/18 05:58:35;;;;;;;11.38;5.88;;;9.80;99.90;;;;;;7390117;19;20038;-69
2024/02/18 06:01:02;;;;;;;8.93;5.93;;;9.80;99.90;;;;;;7392047;19;20042;-68
2024/02/18 06:03:29;;;;;;;11.30;5.88;;;9.80;99.90;;;;;;7385539;19;20443;-71
2024/02/18 06:05:56;;;;;;;12.27;5.88;;;9.70;99.90;;;;;;7383572;19;21433;-70
2024/02/18 06:08:26;;;;;;;12.43;5.55;;;9.70;99.90;;;;;;7381457;19;20018;-71
2024/02/18 06:10:53;;;;;;;11.40;6.63;;;9.70;99.90;;;;;;7381391;19;20044;-70
2024/02/18 06:13:20;;;;;;;9.40;6.03;;;9.70;99.90;;;;;;7384088;19;20025;-67
2024/02/18 06:15:46;;;;;;;11.20;6.30;;;9.70;99.90;;;;;;7382002;19;20479;-68
2024/02/18 06:18:12;;;;;;;11.10;6.10;;;9.70;99.90;;;;;;7381696;19;20022;-68
2024/02/18 06:20:38;;;;;;;14.55;6.70;;;9.60;99.90;;;;;;7385246;19;20046;-66
2024/02/18 06:23:05;;;;;;;10.65;6.55;;;9.60;99.90;;;;;;7385724;19;20039;-66
2024/02/18 06:25:36;;;;;;;14.30;7.82;;;9.60;99.90;;;;;;7382414;19;20018;-68
2024/02/18 06:28:09;;;;;;;10.67;7.60;;;9.60;99.90;;;;;;7384166;19;20035;-67
2024/02/18 06:30:36;;;;;;;11.10;6.82;;;9.60;99.90;;;;;;7384904;19;20054;-67
2024/02/18 06:33:03;;;;;;;12.40;7.15;;;9.60;99.90;;;;;;7383915;19;20022;-67
2024/02/18 06:35:30;;;;;;;13.13;8.07;;;9.60;99.90;;;;;;7385269;19;20018;-66
2024/02/18 06:37:56;;;;;;;13.73;7.88;;;9.60;99.90;;;;;;7383223;19;20748;-69
2024/02/18 06:40:24;;;;;;;12.95;6.90;;;9.60;99.90;;;;;;7383311;19;20389;-69
2024/02/18 06:42:50;;;;;;;16.08;8.35;;;9.60;99.90;;;;;;7378464;19;20467;-68
2024/02/18 06:45:17;;;;;;;14.25;7.68;;;9.50;99.90;;;;;;7379567;19;20747;-66
2024/02/18 06:47:43;;;;;;;15.93;8.05;;;9.50;99.90;;;;;;7382924;19;20014;-68
2024/02/18 06:50:09;;;;;;;11.45;8.18;;;9.50;99.90;;;;;;7384927;19;20392;-67
2024/02/18 06:52:35;;;;;;;12.50;8.20;;;9.50;99.90;;;;;;7379037;19;20018;-68
2024/02/18 06:55:05;;;;;;;12.15;7.50;;;9.50;99.90;;;;;;7379521;19;20022;-66
2024/02/18 06:57:31;;;;;;;14.70;7.53;;;9.50;99.90;;;;;;7382247;19;20361;-65
2024/02/18 07:00:01;;;;;;;18.85;7.97;;;9.50;99.90;;;;;;7375849;19;20516;-67
2024/02/18 07:02:27;;;;;;;9.73;7.78;;;9.50;99.90;;;;;;7383669;19;20019;-68
2024/02/18 07:04:53;;;;;;;12.95;8.25;;;9.50;99.90;;;;;;7379007;19;20054;-68
2024/02/18 07:07:20;;;;;;;16.17;8.43;;;9.50;99.90;;;;;;7379783;19;20086;-66
2024/02/18 07:09:47;;;;;;;16.52;8.82;;;9.50;99.90;;;;;;7373945;19;20988;-66
2024/02/18 07:12:14;;;;;;;16.05;9.23;;;9.50;99.90;;;;;;7375215;19;20029;-68
2024/02/18 07:14:41;;;;;;;18.25;8.38;;;9.50;99.90;;;;;;7376338;19;20096;-67
2024/02/18 07:17:09;;;;;;;13.82;8.40;;;9.50;99.90;;;;;;7378342;19;20022;-69
2024/02/18 07:19:36;;;;;;;11.35;8.10;;;9.50;99.90;;;;;;7374752;19;20614;-66
2024/02/18 07:22:04;;;;;;;15.75;8.25;;;9.50;99.90;;;;;;7380238;19;20074;-67
2024/02/18 07:24:31;;;;;;;15.73;9.02;;;9.50;99.90;;;;;;7380406;19;20048;-67
2024/02/18 07:26:58;;;;;;;15.43;8.25;;;9.50;99.90;;;;;;7378083;19;20022;-66
2024/02/18 07:29:25;;;;;;;15.80;8.50;;;9.50;99.90;;;;;;7376827;19;20112;-67
2024/02/18 07:31:52;;;;;;;12.23;8.52;;;9.50;99.90;;;;;;7354272;19;20082;-66
2024/02/18 07:34:19;;;;;;;18.80;9.30;;;9.50;99.90;;;;;;7383853;19;20039;-66
2024/02/18 07:36:46;;;;;;;14.20;9.43;;;9.50;99.90;;;;;;7379057;19;20094;-66
2024/02/18 07:39:13;;;;;;;16.58;8.63;;;9.50;99.90;;;;;;7382947;19;20022;-67
2024/02/18 07:41:40;;;;;;;14.38;9.43;;;9.50;99.90;;;;;;7379775;19;20014;-68
2024/02/18 07:44:07;;;;;;;17.98;8.68;;;9.50;99.90;;;;;;7382374;19;20026;-68
2024/02/18 07:46:34;;;;;;;15.73;8.80;;;9.50;99.90;;;;;;7382138;19;20028;-68
2024/02/18 07:49:02;;;;;;;17.35;9.43;;;9.50;99.90;;;;;;7382290;19;20022;-68
2024/02/18 07:51:29;;;;;;;14.52;8.85;;;9.50;99.90;;;;;;7381940;19;20050;-66
2024/02/18 07:53:55;;;;;;;17.67;8.45;;;9.50;99.90;;;;;;7381589;19;20077;-66
2024/02/18 07:56:22;;;;;;;14.93;8.73;;;9.50;99.90;;;;;;7381595;19;20015;-65
2024/02/18 07:58:49;;;;;;;16.77;8.45;;;9.50;99.90;;;;;;7379883;19;20015;-65
2024/02/18 08:01:16;;;;;;;18.02;8.82;;;9.50;99.90;;;;;;7383484;19;20052;-66
2024/02/18 08:03:43;;;;;;;18.25;8.20;;;9.50;99.90;;;;;;7381283;19;20026;-66
2024/02/18 08:06:10;;;;;;;13.35;7.93;;;9.50;99.90;;;;;;7380442;19;20018;-67
2024/02/18 08:08:37;;;;;;;15.00;9.40;;;9.60;99.90;;;;;;7385030;19;20056;-67
2024/02/18 08:11:04;;;;;;;14.65;9.07;;;9.60;99.90;;;;;;7382899;19;20039;-66
2024/02/18 08:13:31;;;;;;;14.60;8.05;;;9.60;99.90;;;;;;7385780;19;20018;-67
2024/02/18 08:15:58;;;;;;;20.25;9.05;;;9.60;99.90;;;;;;7382571;19;20026;-67
2024/02/18 08:18:25;;;;;;;16.92;8.70;;;9.60;99.90;;;;;;7364561;19;20492;-67
2024/02/18 08:20:52;;;;;;;12.60;7.82;;;9.50;99.90;;;;;;7373106;19;20022;-66
2024/02/18 08:23:19;;;;;;;12.43;7.55;;;9.50;99.90;;;;;;7371599;19;20011;-67
2024/02/18 08:25:45;;;;;;;12.65;8.00;;;9.50;99.90;;;;;;7374880;19;20018;-66
2024/02/18 08:28:11;;;;;;;18.58;7.47;;;9.50;99.90;;;;;;7366259;19;20559;-66
2024/02/18 08:30:37;;;;;;;15.13;7.90;;;9.50;99.90;;;;;;7373110;19;20014;-68
2024/02/18 08:33:04;;;;;;;16.90;7.25;;;9.50;99.90;;;;;;7370318;19;20078;-68
2024/02/18 08:35:30;;;;;;;14.38;7.97;;;9.50;99.90;;;;;;7375742;19;20051;-67
2024/02/18 08:37:57;;;;;;;13.55;7.53;;;9.50;99.90;;;;;;7373457;19;20375;-68
2024/02/18 08:40:23;;;;;;;12.32;7.22;;;9.50;99.90;;;;;;7374086;19;20629;-66
2024/02/18 08:42:49;;;;;;;14.10;7.40;;;9.50;99.90;;;;;;7376366;19;20094;-68
2024/02/18 08:45:16;;;;;;;16.63;8.48;;;9.50;99.90;;;;;;7376385;19;20018;-68
2024/02/18 08:47:42;;;;;;;14.55;7.63;;;9.40;99.90;;;;;;7376624;19;20030;-66
2024/02/18 08:50:10;;;;;;;11.40;6.97;;;9.40;99.90;;;;;;7380258;19;20018;-67
2024/02/18 08:52:36;;;;;;;16.23;7.45;;;9.40;99.90;;;;;;7376536;19;20495;-66
2024/02/18 08:55:03;;;;;;;13.25;8.00;;;9.30;99.90;;;;;;7375157;19;20653;-68
2024/02/18 08:57:30;;;;;;;15.20;7.70;;;9.30;99.90;;;;;;7379261;19;21646;-68
2024/02/18 08:59:58;;;;;;;13.02;7.65;;;9.30;99.90;;;;;;7374264;19;20018;-65
2024/02/18 09:02:25;;;;;;;11.85;7.47;;;9.30;99.90;;;;;;7377624;19;20010;-67
2024/02/18 09:04:51;;;;;;;16.90;7.55;;;9.30;99.90;;;;;;7373228;19;20025;-68
2024/02/18 09:07:18;;;;;;;14.63;7.40;;;9.30;99.90;;;;;;7372360;19;20019;-68
2024/02/18 09:09:44;;;;;;;11.90;7.72;;;9.30;99.90;;;;;;7342998;19;20033;-69
2024/02/18 09:12:11;;;;;;;14.10;8.27;;;9.30;99.90;;;;;;7372258;19;20785;-67
2024/02/18 09:14:37;;;;;;;14.98;8.02;;;9.30;99.90;;;;;;7359078;19;20577;-66
2024/02/18 09:17:06;;;;;;;10.88;7.72;;;9.30;99.90;;;;;;7370072;19;20636;-66
2024/02/18 09:19:33;;;;;;;11.57;7.10;;;9.30;99.90;;;;;;7351511;19;20038;-65
2024/02/18 09:22:01;;;;;;;12.88;8.05;;;9.20;99.90;;;;;;7367938;19;20014;-65
2024/02/18 09:24:28;;;;;;;15.43;7.88;;;9.20;99.90;;;;;;7378354;19;20033;-64
2024/02/18 09:26:55;;;;;;;13.68;7.05;;;9.20;99.90;;;;;;7382508;19;20052;-65
2024/02/18 09:29:22;;;;;;;15.20;7.72;;;9.20;99.90;;;;;;7382127;19;20014;-65
2024/02/18 09:31:49;;;;;;;15.25;8.85;;;9.20;99.90;;;;;;7361487;19;20061;-65
2024/02/18 09:34:16;;;;;;;16.00;8.77;;;9.20;99.90;;;;;;7381519;19;20022;-67
2024/02/18 09:36:43;;;;;;;11.73;8.18;;;9.20;99.90;;;;;;7391552;19;20019;-68
2024/02/18 09:39:11;;;;;;;14.95;7.43;;;9.30;99.90;;;;;;7380538;19;20511;-64
2024/02/18 09:41:40;;;;;;;18.63;7.88;;;9.30;99.90;;;;;;7377804;19;20029;-66
2024/02/18 09:44:07;;;;;;;12.70;7.85;;;9.30;99.90;;;;;;7379508;19;20024;-65
2024/02/18 09:46:37;;;;;;;16.20;7.88;;;9.30;99.90;;;;;;7382539;19;20014;-65
2024/02/18 09:49:06;;;;;;;14.45;7.07;;;9.30;99.90;;;;;;7384517;19;20023;-65
2024/02/18 09:51:35;;;;;;;15.50;6.95;;;9.30;99.90;;;;;;7383339;19;20011;-66
2024/02/18 09:54:06;;;;;;;16.10;7.78;;;9.30;99.90;;;;;;7383887;19;20413;-66
2024/02/18 09:56:33;;;;;;;13.32;7.22;;;9.30;99.90;;;;;;7383167;19;20620;-65
2024/02/18 09:58:59;;;;;;;12.20;6.85;;;9.30;99.90;;;;;;7388614;19;20014;-68
2024/02/18 10:01:25;;;;;;;11.35;6.63;;;9.30;99.90;;;;;;7388209;19;20011;-69
2024/02/18 10:03:52;;;;;;;11.35;6.85;;;9.30;99.90;;;;;;7387684;19;20043;-69
2024/02/18 10:06:19;;;;;;;13.57;7.18;;;9.30;99.90;;;;;;7389260;19;20018;-68
2024/02/18 10:08:54;;;;;;;14.18;7.72;;;9.30;99.90;;;;;;7389029;19;20031;-68
2024/02/18 10:11:21;;;;;;;10.40;6.75;;;9.30;99.90;;;;;;7384718;19;20842;-68
2024/02/18 10:13:48;;;;;;;10.07;7.57;;;9.30;99.90;;;;;;7387091;19;20047;-67
2024/02/18 10:16:15;;;;;;;13.52;7.72;;;9.30;99.90;;;;;;7389521;19;20034;-67
2024/02/18 10:18:45;;;;;;;11.50;8.23;;;9.30;99.90;;;;;;7386420;19;20022;-68
2024/02/18 10:21:14;;;;;;;11.75;7.55;;;9.40;99.90;;;;;;7387401;19;20042;-67
2024/02/18 10:23:44;;;;;;;11.82;8.38;;;9.30;99.90;;;;;;7386904;19;20018;-68
2024/02/18 10:26:11;;;;;;;13.38;7.75;;;9.30;99.90;;;;;;7383797;19;20025;-66
2024/02/18 10:28:41;;;;;;;12.75;7.35;;;9.30;99.90;;;;;;7379572;19;20011;-69
2024/02/18 10:31:08;;;;;;;12.85;8.30;;;9.30;99.90;;;;;;7383293;19;20018;-69
2024/02/18 10:33:36;;;;;;;12.07;7.50;;;9.30;99.90;;;;;;7383347;19;20015;-69
2024/02/18 10:36:13;;;;;;;12.23;7.13;;;9.30;99.90;;;;;;7379951;19;20041;-70
2024/02/18 10:38:45;;;;;;;14.10;8.02;;;9.30;99.90;;;;;;7384623;19;20035;-69
2024/02/18 10:41:18;;;;;;;;;;;9.30;99.90;;;;;;7387355;19;20359;-69
2024/02/18 10:43:49;;;;;;;13.98;7.80;;;9.20;99.90;;;;;;7381827;19;19955;-68
2024/02/18 10:46:23;;;;;;;12.23;8.70;;;9.20;99.90;;;;;;7385231;19;20116;-70
2024/02/18 10:48:54;;;;;;;13.85;8.68;;;9.20;99.90;;;;;;7383922;19;20508;-69
2024/02/18 10:51:37;;;;;;;10.98;8.10;;;9.20;99.90;;;;;;7384852;19;20046;-69
2024/02/18 10:54:19;;;;;;;10.48;7.13;;;9.20;99.90;;;;;;7381093;19;20779;-69
2024/02/18 10:56:46;;;;;;;11.40;7.80;;;9.20;99.90;;;;;;7383690;19;20018;-69
2024/02/18 10:59:23;;;;;;;14.20;7.70;;;9.20;99.90;;;;;;7385162;19;20019;-69
2024/02/18 11:02:01;;;;;;;11.02;7.75;;;9.10;99.90;;;;;;7386257;19;20022;-68
2024/02/18 11:04:31;;;;;;;10.10;7.60;;;9.10;99.90;;;;;;7383489;19;20031;-68
2024/02/18 11:06:59;;;;;;;9.27;6.95;;;9.10;99.90;;;;;;7384778;19;20014;-68
2024/02/18 11:09:27;;;;;;;10.85;8.10;;;9.10;99.90;;;;;;7382149;19;20053;-67
2024/02/18 11:11:55;;;;;;;9.75;6.43;;;9.10;99.90;;;;;;7380834;19;20023;-69
2024/02/18 11:14:23;;;;;;;10.30;7.63;;;9.10;99.90;;;;;;7384471;19;20023;-68
2024/02/18 11:16:52;;;;;;;12.82;8.40;;;9.20;99.90;;;;;;7382345;19;20011;-66
2024/02/18 11:19:19;;;;;;;10.05;7.97;;;9.20;99.90;;;;;;7380779;19;20078;-68
2024/02/18 11:21:50;;;;;;;9.40;7.07;;;9.10;99.90;;;;;;7382409;19;20047;-68
2024/02/18 11:24:17;;;;;;;11.25;8.10;;;9.10;99.90;;;;;;7377940;19;20077;-66
2024/02/18 11:26:45;;;;;;;12.82;8.40;;;9.10;99.90;;;;;;7372375;19;20019;-66
2024/02/18 11:29:13;;;;;;;10.88;7.93;;;9.10;99.90;;;;;;7377458;19;20043;-66
2024/02/18 11:31:40;;;;;;;10.23;8.52;;;9.10;99.90;;;;;;7376822;19;20011;-66
2024/02/18 11:34:07;;;;;;;10.20;8.32;;;9.10;99.90;;;;;;7376980;19;20026;-66
2024/02/18 11:36:35;;;;;;;10.20;6.93;;;9.10;99.90;;;;;;7382232;19;20018;-67
2024/02/18 11:39:03;;;;;;;9.52;7.20;;;9.10;99.90;;;;;;7374794;19;21239;-66
2024/02/18 11:41:34;;;;;;;15.80;8.00;;;9.00;99.90;;;;;;7375619;19;20026;-65
2024/02/18 11:44:11;;;;;;;16.98;8.77;;;9.00;99.90;;;;;;7378345;19;20902;-67
2024/02/18 11:46:40;;;;;;;10.15;7.65;;;9.00;99.90;;;;;;7380532;19;20043;-68
2024/02/18 11:49:07;;;;;;;10.70;7.10;;;9.00;99.90;;;;;;7379740;19;20031;-66
2024/02/18 11:51:35;;;;;;;11.27;8.20;;;8.90;99.90;;;;;;7376449;19;20030;-67
2024/02/18 11:54:04;;;;;;;12.32;7.38;;;8.90;99.90;;;;;;7370152;19;20022;-66
2024/02/18 11:56:31;;;;;;;10.50;7.85;;;8.90;99.90;;;;;;7378777;19;20022;-66
2024/02/18 11:58:57;;;;;;;12.93;8.05;;;8.90;99.90;;;;;;7382567;19;20023;-68
2024/02/18 12:01:26;;;;;;;12.82;7.97;;;8.90;99.90;;;;;;7379559;19;20027;-68
2024/02/18 12:03:55;;;;;;;11.27;7.80;;;8.90;99.90;;;;;;7376905;19;20490;-67
2024/02/18 12:06:23;;;;;;;12.57;7.72;;;8.90;99.90;;;;;;7374704;19;20018;-66
2024/02/18 12:08:49;;;;;;;16.48;7.63;;;8.90;99.90;;;;;;7379304;19;20033;-68
2024/02/18 12:11:16;;;;;;;10.90;6.13;;;8.90;99.90;;;;;;7376262;19;20015;-68
2024/02/18 12:13:43;;;;;;;13.88;8.00;;;8.80;99.90;;;;;;7380344;19;20014;-67
2024/02/18 12:16:12;;;;;;;10.45;7.43;;;8.80;99.90;;;;;;7370773;19;20428;-66
2024/02/18 12:18:38;;;;;;;11.88;6.30;;;8.80;99.90;;;;;;7377788;19;20106;-66
2024/02/18 12:21:05;;;;;;;9.25;6.18;;;8.80;99.90;;;;;;7375971;19;20030;-68
2024/02/18 12:23:40;;;;;;;11.05;6.90;;;8.80;99.90;;;;;;7381632;19;20074;-66
2024/02/18 12:26:06;;;;;;;13.55;7.05;;;8.80;99.90;;;;;;7370354;19;20056;-67
2024/02/18 12:28:32;;;;;;;9.68;6.00;;;8.80;99.90;;;;;;7377735;19;20045;-66
2024/02/18 12:30:58;;;;;;;8.07;6.20;;;8.80;99.90;;;;;;7374458;19;20049;-67
2024/02/18 12:33:24;;;;;;;8.32;5.70;;;8.70;99.90;;;;;;7376208;19;20085;-66
2024/02/18 12:35:54;;;;;;;7.32;5.63;;;8.80;99.90;;;;;;7372455;19;20039;-65
2024/02/18 12:38:21;;;;;;;8.40;5.60;;;8.70;99.90;;;;;;7378342;19;20097;-67
2024/02/18 12:40:56;;;;;;;8.32;5.47;;;8.70;99.90;;;;;;7375341;19;20026;-67
2024/02/18 12:43:24;;;;;;;9.40;6.10;;;8.70;99.90;;;;;;7380738;19;20018;-67